Time;durP1;ratioP1;P1;durP2;ratioP2;P2;SDS_P1;SDS_P2;PMS_P1;PMS_P2;Temp;Humidity;BMP_temperature;BMP_pressure;BME280_temperature;BME280_humidity;BME280_pressure;Samples;Min_cycle;Max_cycle;Signal;HPM_P1;HPM_P2
2024/04/02 00:01:56;;;;;;;;;;;;;;;;;;5044880;28;19936;-72
2024/04/02 00:04:22;;;;;;;;;;;;;;;;;;5049165;28;19975;-71
2024/04/02 00:06:49;;;;;;;;;;;;;;;;;;5046694;28;19932;-72
2024/04/02 00:09:15;;;;;;;;;;;;;;;;;;5048055;28;19928;-72
2024/04/02 00:11:42;;;;;;;;;;;;;;;;;;5048488;28;19929;-72
2024/04/02 00:14:08;;;;;;;;;;;;;;;;;;5047977;28;19937;-72
2024/04/02 00:16:36;;;;;;;;;;;;;;;;;;5049987;28;19963;-72
2024/04/02 00:19:02;;;;;;;;;;;;;;;;;;5049012;28;19928;-71
2024/04/02 00:21:30;;;;;;;;;;;;;;;;;;5048589;28;19991;-72
2024/04/02 00:23:56;;;;;;;;;;;;;;;;;;5046096;28;19929;-71
2024/04/02 00:26:23;;;;;;;;;;;;;;;;;;5047660;28;19976;-71
2024/04/02 00:28:49;;;;;;;;;;;;;;;;;;5047675;28;19929;-71
2024/04/02 00:31:16;;;;;;;;;;;;;;;;;;5048151;28;19928;-71
2024/04/02 00:33:42;;;;;;;;;;;;;;;;;;5048890;28;19982;-72
2024/04/02 00:36:09;;;;;;;;;;;;;;;;;;5048632;28;19932;-71
2024/04/02 00:38:35;;;;;;;;;;;;;;;;;;5047391;28;20398;-71
2024/04/02 00:41:02;;;;;;;;;;;;;;;;;;5048563;28;19933;-71
2024/04/02 00:43:28;;;;;;;;;;;;;;;;;;5048358;28;20449;-71
2024/04/02 00:45:55;;;;;;;;;;;;;;;;;;5047965;28;20288;-72
2024/04/02 00:48:21;;;;;;;;;;;;;;;;;;5048351;28;20396;-73
2024/04/02 00:50:48;;;;;;;;;;;;;;;;;;5049245;28;19929;-71
2024/04/02 00:53:14;;;;;;;;;;;;;;;;;;5048214;28;19929;-72
2024/04/02 00:55:41;;;;;;;;;;;;;;;;;;5046013;28;19929;-71
2024/04/02 00:58:07;;;;;;;;;;;;;;;;;;5047240;28;19932;-72
2024/04/02 01:00:36;;;;;;;;;;;;;;;;;;5048147;28;19935;-71
2024/04/02 01:03:02;;;;;;;;;;;;;;;;;;5047873;28;19955;-72
2024/04/02 01:05:29;;;;;;;;;;;;;;;;;;5048034;28;20380;-71
2024/04/02 01:07:55;;;;;;;;;;;;;;;;;;5048602;28;19929;-72
2024/04/02 01:10:22;;;;;;;;;;;;;;;;;;5047921;28;19928;-72
2024/04/02 01:12:48;;;;;;;;;;;;;;;;;;5051186;28;19951;-72
2024/04/02 01:15:15;;;;;;;;;;;;;;;;;;5050767;28;19929;-72
2024/04/02 01:17:41;;;;;;;;;;;;;;;;;;5056589;28;19929;-71
2024/04/02 01:20:08;;;;;;;;;;;;;;;;;;5055481;28;19929;-72
2024/04/02 01:22:35;;;;;;;;;;;;;;;;;;5051466;28;20343;-72
2024/04/02 01:25:02;;;;;;;;;;;;;;;;;;5053651;28;19936;-72
2024/04/02 01:27:28;;;;;;;;;;;;;;;;;;5051735;28;19932;-72
2024/04/02 01:29:55;;;;;;;;;;;;;;;;;;5050996;28;19928;-72
2024/04/02 01:32:21;;;;;;;;;;;;;;;;;;5048877;28;20021;-72
2024/04/02 01:34:48;;;;;;;;;;;;;;;;;;5050935;28;19929;-72
2024/04/02 01:37:14;;;;;;;;;;;;;;;;;;5051254;28;19929;-72
2024/04/02 01:39:41;;;;;;;;;;;;;;;;;;5049650;28;20075;-72
2024/04/02 01:42:07;;;;;;;;;;;;;;;;;;5051369;28;19968;-72
2024/04/02 01:44:34;;;;;;;;;;;;;;;;;;5050511;28;19951;-73
2024/04/02 01:47:00;;;;;;;;;;;;;;;;;;5049286;28;19980;-72
2024/04/02 01:49:27;;;;;;;;;;;;;;;;;;5050861;28;19935;-72
2024/04/02 01:51:53;;;;;;;;;;;;;;;;;;5042609;28;20273;-72
2024/04/02 01:54:21;;;;;;;;;;;;;;;;;;5050249;28;20276;-72
2024/04/02 01:56:47;;;;;;;;;;;;;;;;;;5047733;28;20020;-72
2024/04/02 01:59:14;;;;;;;;;;;;;;;;;;5048446;28;19929;-72
2024/04/02 02:01:40;;;;;;;;;;;;;;;;;;5050555;28;19967;-73
2024/04/02 02:04:07;;;;;;;;;;;;;;;;;;5048021;28;19925;-72
2024/04/02 02:06:33;;;;;;;;;;;;;;;;;;5046992;28;20446;-72
2024/04/02 02:09:00;;;;;;;;;;;;;;;;;;5049730;28;19933;-72
2024/04/02 02:11:26;;;;;;;;;;;;;;;;;;5047152;28;20388;-72
2024/04/02 02:13:53;;;;;;;;;;;;;;;;;;5050116;28;20419;-72
2024/04/02 02:16:19;;;;;;;;;;;;;;;;;;5050557;28;19955;-72
2024/04/02 02:18:46;;;;;;;;;;;;;;;;;;5050039;28;19975;-72
2024/04/02 02:21:12;;;;;;;;;;;;;;;;;;5050717;28;19929;-72
2024/04/02 02:23:40;;;;;;;;;;;;;;;;;;5047044;28;19939;-71
2024/04/02 02:26:06;;;;;;;;;;;;;;;;;;5044543;28;19982;-72
2024/04/02 02:28:33;;;;;;;;;;;;;;;;;;5048152;28;19928;-70
2024/04/02 02:30:59;;;;;;;;;;;;;;;;;;5046184;28;20423;-72
2024/04/02 02:33:26;;;;;;;;;;;;;;;;;;5044488;28;19929;-70
2024/04/02 02:35:52;;;;;;;;;;;;;;;;;;5042032;28;19936;-71
2024/04/02 02:38:20;;;;;;;;;;;;;;;;;;5044543;28;20395;-72
2024/04/02 02:40:46;;;;;;;;;;;;;;;;;;5042174;28;20395;-71
2024/04/02 02:43:13;;;;;;;;;;;;;;;;;;5046417;28;20464;-71
2024/04/02 02:45:39;;;;;;;;;;;;;;;;;;5046591;28;20074;-71
2024/04/02 02:48:06;;;;;;;;;;;;;;;;;;5045597;28;19951;-71
2024/04/02 02:50:32;;;;;;;;;;;;;;;;;;5046227;28;19929;-72
2024/04/02 02:52:59;;;;;;;;;;;;;;;;;;5046230;28;20474;-71
2024/04/02 02:55:25;;;;;;;;;;;;;;;;;;5045699;28;20019;-71
2024/04/02 02:57:52;;;;;;;;;;;;;;;;;;5042749;28;19936;-71
2024/04/02 03:00:18;;;;;;;;;;;;;;;;;;5043439;28;19933;-70
2024/04/02 03:02:45;;;;;;;;;;;;;;;;;;5041487;28;19929;-72
2024/04/02 03:05:11;;;;;;;;;;;;;;;;;;5043839;28;19929;-71
2024/04/02 03:07:38;;;;;;;;;;;;;;;;;;5043383;28;20350;-71
2024/04/02 03:10:05;;;;;;;;;;;;;;;;;;5043888;28;20293;-71
2024/04/02 03:12:32;;;;;;;;;;;;;;;;;;5045920;28;19929;-71
2024/04/02 03:14:58;;;;;;;;;;;;;;;;;;5044382;28;19929;-72
2024/04/02 03:17:25;;;;;;;;;;;;;;;;;;5045773;28;19929;-72
2024/04/02 03:19:52;;;;;;;;;;;;;;;;;;5044231;28;19951;-72
2024/04/02 03:22:19;;;;;;;;;;;;;;;;;;5047250;28;19929;-72
2024/04/02 03:24:45;;;;;;;;;;;;;;;;;;5048724;28;19951;-71
2024/04/02 03:27:12;;;;;;;;;;;;;;;;;;5047832;28;19959;-72
2024/04/02 03:29:39;;;;;;;;;;;;;;;;;;5043391;28;19933;-72
2024/04/02 03:32:06;;;;;;;;;;;;;;;;;;5046824;28;19929;-72
2024/04/02 03:34:32;;;;;;;;;;;;;;;;;;5044979;28;19933;-71
2024/04/02 03:36:59;;;;;;;;;;;;;;;;;;5044704;28;20384;-71
2024/04/02 03:39:26;;;;;;;;;;;;;;;;;;5047338;28;20449;-72
2024/04/02 03:41:53;;;;;;;;;;;;;;;;;;5047034;28;20461;-71
2024/04/02 03:44:20;;;;;;;;;;;;;;;;;;5046613;28;20444;-72
2024/04/02 03:46:46;;;;;;;;;;;;;;;;;;5046763;28;19986;-72
2024/04/02 03:49:13;;;;;;;;;;;;;;;;;;5046443;28;20447;-71
2024/04/02 03:51:39;;;;;;;;;;;;;;;;;;5047051;28;19933;-72
2024/04/02 03:54:06;;;;;;;;;;;;;;;;;;5045226;28;19929;-72
2024/04/02 03:56:34;;;;;;;;;;;;;;;;;;5043714;28;19929;-72
2024/04/02 03:59:03;;;;;;;;;;;;;;;;;;5045010;28;20383;-71
2024/04/02 04:01:30;;;;;;;;;;;;;;;;;;5045114;28;19928;-73
2024/04/02 04:03:59;;;;;;;;;;;;;;;;;;5046731;28;19939;-72
2024/04/02 04:06:25;;;;;;;;;;;;;;;;;;5043464;28;19972;-72
2024/04/02 04:08:52;;;;;;;;;;;;;;;;;;5046555;28;19935;-71
2024/04/02 04:11:18;;;;;;;;;;;;;;;;;;5046741;28;19951;-72
2024/04/02 04:13:45;;;;;;;;;;;;;;;;;;5046988;28;19943;-72
2024/04/02 04:16:12;;;;;;;;;;;;;;;;;;5047249;28;19940;-73
2024/04/02 04:18:39;;;;;;;;;;;;;;;;;;5045747;28;19929;-72
2024/04/02 04:21:05;;;;;;;;;;;;;;;;;;5045706;28;19939;-73
2024/04/02 04:23:32;;;;;;;;;;;;;;;;;;5045205;28;19939;-71
2024/04/02 04:25:59;;;;;;;;;;;;;;;;;;5042333;28;19929;-73
2024/04/02 04:28:26;;;;;;;;;;;;;;;;;;5046599;28;19929;-71
2024/04/02 04:30:52;;;;;;;;;;;;;;;;;;5047617;28;19983;-73
2024/04/02 04:33:19;;;;;;;;;;;;;;;;;;5048501;28;19999;-74
2024/04/02 04:35:45;;;;;;;;;;;;;;;;;;5045379;28;19998;-73
2024/04/02 04:38:13;;;;;;;;;;;;;;;;;;5045142;28;20358;-75
2024/04/02 04:40:39;;;;;;;;;;;;;;;;;;5046790;28;20031;-74
2024/04/02 04:43:06;;;;;;;;;;;;;;;;;;5049178;28;19932;-74
2024/04/02 04:45:34;;;;;;;;;;;;;;;;;;5050683;28;19936;-73
2024/04/02 04:48:02;;;;;;;;;;;;;;;;;;5051758;28;19982;-75
2024/04/02 04:50:29;;;;;;;;;;;;;;;;;;5053808;28;20023;-73
2024/04/02 04:52:56;;;;;;;;;;;;;;;;;;5052402;28;19933;-74
2024/04/02 04:55:22;;;;;;;;;;;;;;;;;;5049497;28;19983;-74
2024/04/02 04:57:50;;;;;;;;;;;;;;;;;;5048370;28;19935;-72
2024/04/02 05:00:16;;;;;;;;;;;;;;;;;;5052354;28;19929;-74
2024/04/02 05:02:43;;;;;;;;;;;;;;;;;;5050230;28;20442;-74
2024/04/02 05:05:09;;;;;;;;;;;;;;;;;;5048051;28;19929;-73
2024/04/02 05:07:36;;;;;;;;;;;;;;;;;;5053212;28;19932;-74
2024/04/02 05:10:04;;;;;;;;;;;;;;;;;;5045397;28;20347;-73
2024/04/02 05:12:31;;;;;;;;;;;;;;;;;;5046698;28;19940;-74
2024/04/02 05:14:57;;;;;;;;;;;;;;;;;;5049540;28;19932;-74
2024/04/02 05:17:26;;;;;;;;;;;;;;;;;;5048568;28;19991;-72
2024/04/02 05:19:58;;;;;;;;;;;;;;;;;;5047522;28;19952;-73
2024/04/02 05:22:25;;;;;;;;;;;;;;;;;;5049561;28;19963;-74
2024/04/02 05:24:52;;;;;;;;;;;;;;;;;;5049285;28;20346;-75
2024/04/02 05:27:19;;;;;;;;;;;;;;;;;;5047808;28;20284;-74
2024/04/02 05:29:45;;;;;;;;;;;;;;;;;;5049498;28;19932;-74
2024/04/02 05:32:12;;;;;;;;;;;;;;;;;;5049460;28;19929;-74
2024/04/02 05:34:38;;;;;;;;;;;;;;;;;;5051615;28;20449;-74
2024/04/02 05:37:05;;;;;;;;;;;;;;;;;;5051535;28;20023;-72
2024/04/02 05:39:31;;;;;;;;;;;;;;;;;;5052424;28;20395;-72
2024/04/02 05:41:58;;;;;;;;;;;;;;;;;;5044932;28;19931;-71
2024/04/02 05:44:24;;;;;;;;;;;;;;;;;;5045396;28;19929;-70
2024/04/02 05:46:51;;;;;;;;;;;;;;;;;;5046002;28;20437;-71
2024/04/02 05:49:17;;;;;;;;;;;;;;;;;;5046927;28;19983;-71
2024/04/02 05:51:44;;;;;;;;;;;;;;;;;;5048545;28;20303;-71
2024/04/02 05:54:11;;;;;;;;;;;;;;;;;;5044831;28;20450;-70
2024/04/02 05:56:38;;;;;;;;;;;;;;;;;;5049489;28;19932;-71
2024/04/02 05:59:04;;;;;;;;;;;;;;;;;;5047713;28;19995;-72
2024/04/02 06:01:31;;;;;;;;;;;;;;;;;;5060423;28;20023;-74
2024/04/02 06:03:57;;;;;;;;;;;;;;;;;;5050928;28;20134;-75
2024/04/02 06:06:25;;;;;;;;;;;;;;;;;;5050810;28;19982;-74
2024/04/02 06:08:51;;;;;;;;;;;;;;;;;;5052999;28;19952;-73
2024/04/02 06:11:18;;;;;;;;;;;;;;;;;;5046958;28;20107;-74
2024/04/02 06:13:44;;;;;;;;;;;;;;;;;;5045489;28;19935;-74
2024/04/02 06:16:11;;;;;;;;;;;;;;;;;;5050769;28;20277;-74
2024/04/02 06:18:37;;;;;;;;;;;;;;;;;;5038652;28;20607;-73
2024/04/02 06:21:04;;;;;;;;;;;;;;;;;;5041784;28;19929;-73
2024/04/02 06:23:30;;;;;;;;;;;;;;;;;;5048112;28;19975;-73
2024/04/02 06:25:57;;;;;;;;;;;;;;;;;;5047360;28;20447;-73
2024/04/02 06:28:23;;;;;;;;;;;;;;;;;;5046252;28;19960;-74
2024/04/02 06:30:51;;;;;;;;;;;;;;;;;;5049118;28;19936;-73
2024/04/02 06:33:17;;;;;;;;;;;;;;;;;;5045816;28;19978;-75
2024/04/02 06:35:44;;;;;;;;;;;;;;;;;;5046241;28;19933;-73
2024/04/02 06:38:11;;;;;;;;;;;;;;;;;;5044156;28;20378;-73
2024/04/02 06:40:37;;;;;;;;;;;;;;;;;;5041022;28;20018;-75
2024/04/02 06:43:04;;;;;;;;;;;;;;;;;;5040628;28;19929;-75
2024/04/02 06:45:30;;;;;;;;;;;;;;;;;;5038282;28;19967;-75
2024/04/02 06:47:57;;;;;;;;;;;;;;;;;;5045330;28;20002;-75
2024/04/02 06:50:23;;;;;;;;;;;;;;;;;;5037598;28;20384;-75
2024/04/02 06:52:50;;;;;;;;;;;;;;;;;;5040740;28;20021;-74
2024/04/02 06:55:16;;;;;;;;;;;;;;;;;;5045553;28;19929;-73
2024/04/02 06:57:43;;;;;;;;;;;;;;;;;;5032953;28;20004;-76
2024/04/02 07:00:09;;;;;;;;;;;;;;;;;;5039088;28;19933;-74
2024/04/02 07:02:37;;;;;;;;;;;;;;;;;;5044804;28;19928;-76
2024/04/02 07:05:03;;;;;;;;;;;;;;;;;;5039732;28;19928;-74
2024/04/02 07:07:30;;;;;;;;;;;;;;;;;;5044862;28;19929;-74
2024/04/02 07:09:56;;;;;;;;;;;;;;;;;;5042455;28;20670;-73
2024/04/02 07:12:23;;;;;;;;;;;;;;;;;;5042003;28;19996;-73
2024/04/02 07:14:49;;;;;;;;;;;;;;;;;;5038987;28;20192;-74
2024/04/02 07:17:16;;;;;;;;;;;;;;;;;;5042668;28;20302;-74
2024/04/02 07:19:42;;;;;;;;;;;;;;;;;;5044769;28;20350;-73
2024/04/02 07:22:09;;;;;;;;;;;;;;;;;;5038679;28;20406;-74
2024/04/02 07:24:35;;;;;;;;;;;;;;;;;;5043932;28;19961;-73
2024/04/02 07:27:02;;;;;;;;;;;;;;;;;;5036053;28;19928;-76
2024/04/02 07:29:28;;;;;;;;;;;;;;;;;;5046523;28;19982;-73
2024/04/02 07:31:55;;;;;;;;;;;;;;;;;;5039351;28;19928;-71
2024/04/02 07:34:21;;;;;;;;;;;;;;;;;;5035945;28;19933;-73
2024/04/02 07:36:48;;;;;;;;;;;;;;;;;;5041723;28;19994;-71
2024/04/02 07:39:14;;;;;;;;;;;;;;;;;;5038039;28;20415;-72
2024/04/02 07:41:41;;;;;;;;;;;;;;;;;;5038968;28;20422;-73
2024/04/02 07:44:07;;;;;;;;;;;;;;;;;;5033569;28;19976;-73
2024/04/02 07:46:34;;;;;;;;;;;;;;;;;;5038497;28;20614;-73
2024/04/02 07:49:00;;;;;;;;;;;;;;;;;;5040235;28;19965;-71
2024/04/02 07:51:28;;;;;;;;;;;;;;;;;;5038765;28;19929;-72
2024/04/02 07:53:54;;;;;;;;;;;;;;;;;;5039707;28;19933;-73
2024/04/02 07:56:23;;;;;;;;;;;;;;;;;;5039388;28;20694;-73
2024/04/02 07:58:49;;;;;;;;;;;;;;;;;;5037584;28;19979;-72
2024/04/02 08:01:17;;;;;;;;;;;;;;;;;;5040272;28;20536;-75
2024/04/02 08:03:43;;;;;;;;;;;;;;;;;;5037618;28;19928;-72
2024/04/02 08:06:10;;;;;;;;;;;;;;;;;;5038978;28;19933;-75
2024/04/02 08:08:36;;;;;;;;;;;;;;;;;;5037830;28;19929;-73
2024/04/02 08:11:03;;;;;;;;;;;;;;;;;;5037288;28;19929;-73
2024/04/02 08:13:29;;;;;;;;;;;;;;;;;;5040088;28;19944;-73
2024/04/02 08:15:56;;;;;;;;;;;;;;;;;;5045074;28;20314;-74
2024/04/02 08:18:23;;;;;;;;;;;;;;;;;;5047551;28;19940;-74
2024/04/02 08:20:50;;;;;;;;;;;;;;;;;;5048181;28;20039;-73
2024/04/02 08:23:16;;;;;;;;;;;;;;;;;;5046800;28;19933;-74
2024/04/02 08:25:43;;;;;;;;;;;;;;;;;;5049879;28;19929;-73
2024/04/02 08:28:09;;;;;;;;;;;;;;;;;;5051934;28;19995;-74
2024/04/02 08:30:36;;;;;;;;;;;;;;;;;;5046143;28;19932;-74
2024/04/02 08:33:02;;;;;;;;;;;;;;;;;;5046723;28;19976;-75
2024/04/02 08:35:29;;;;;;;;;;;;;;;;;;5044903;28;20396;-69
2024/04/02 08:37:55;;;;;;;;;;;;;;;;;;5041468;28;19929;-72
2024/04/02 08:40:22;;;;;;;;;;;;;;;;;;5036627;28;19932;-71
2024/04/02 08:42:48;;;;;;;;;;;;;;;;;;5037218;28;19936;-72
2024/04/02 08:45:16;;;;;;;;;;;;;;;;;;5041966;28;19929;-72
2024/04/02 08:47:42;;;;;;;;;;;;;;;;;;5045450;28;19948;-72
2024/04/02 08:50:11;;;;;;;;;;;;;;;;;;5046231;28;19934;-71
2024/04/02 08:52:37;;;;;;;;;;;;;;;;;;5041906;28;19929;-73
2024/04/02 08:55:04;;;;;;;;;;;;;;;;;;5038961;28;19929;-72
2024/04/02 08:57:30;;;;;;;;;;;;;;;;;;5036957;28;19932;-72
2024/04/02 08:59:57;;;;;;;;;;;;;;;;;;5052952;28;19929;-73
2024/04/02 09:02:23;;;;;;;;;;;;;;;;;;5057639;28;19971;-69
2024/04/02 09:04:50;;;;;;;;;;;;;;;;;;5050501;28;19929;-74
2024/04/02 09:07:16;;;;;;;;;;;;;;;;;;5043410;28;19940;-72
2024/04/02 09:09:43;;;;;;;;;;;;;;;;;;5051972;28;19943;-71
2024/04/02 09:12:09;;;;;;;;;;;;;;;;;;5042966;28;20023;-72
2024/04/02 09:14:38;;;;;;;;;;;;;;;;;;5038661;28;19929;-72
2024/04/02 09:17:05;;;;;;;;;;;;;;;;;;5034681;28;19935;-73
2024/04/02 09:19:32;;;;;;;;;;;;;;;;;;5047056;28;19978;-72
2024/04/02 09:21:58;;;;;;;;;;;;;;;;;;5044387;28;19929;-73
2024/04/02 09:24:25;;;;;;;;;;;;;;;;;;5040228;28;20249;-73
2024/04/02 09:26:51;;;;;;;;;;;;;;;;;;5045822;28;19995;-72
2024/04/02 09:29:18;;;;;;;;;;;;;;;;;;5042086;28;19929;-73
2024/04/02 09:31:44;;;;;;;;;;;;;;;;;;5046081;28;19929;-73
2024/04/02 09:34:13;;;;;;;;;;;;;;;;;;5043030;28;19937;-73
2024/04/02 09:36:39;;;;;;;;;;;;;;;;;;5043270;28;19929;-73
2024/04/02 09:39:06;;;;;;;;;;;;;;;;;;5046862;28;20353;-73
2024/04/02 09:41:32;;;;;;;;;;;;;;;;;;5042438;28;20306;-73
2024/04/02 09:43:59;;;;;;;;;;;;;;;;;;5040626;28;20008;-71
2024/04/02 09:46:26;;;;;;;;;;;;;;;;;;5041887;28;19932;-72
2024/04/02 09:48:53;;;;;;;;;;;;;;;;;;5039742;28;20027;-73
2024/04/02 09:51:19;;;;;;;;;;;;;;;;;;5042349;28;19971;-72
2024/04/02 09:53:46;;;;;;;;;;;;;;;;;;5040978;28;20474;-71
2024/04/02 09:56:12;;;;;;;;;;;;;;;;;;5038918;28;19965;-73
2024/04/02 09:58:39;;;;;;;;;;;;;;;;;;5039077;28;19929;-73
2024/04/02 10:01:05;;;;;;;;;;;;;;;;;;5038402;28;19986;-73
2024/04/02 10:03:32;;;;;;;;;;;;;;;;;;5036469;28;19951;-72
2024/04/02 10:05:58;;;;;;;;;;;;;;;;;;5040547;28;20035;-73
2024/04/02 10:08:25;;;;;;;;;;;;;;;;;;5040904;28;19998;-73
2024/04/02 10:10:52;;;;;;;;;;;;;;;;;;5046891;28;19933;-72
2024/04/02 10:13:19;;;;;;;;;;;;;;;;;;5043392;28;20016;-73
2024/04/02 10:15:45;;;;;;;;;;;;;;;;;;5040181;28;19951;-73
2024/04/02 10:18:12;;;;;;;;;;;;;;;;;;5044318;28;19933;-74
2024/04/02 10:20:38;;;;;;;;;;;;;;;;;;5068888;23;19933;-73
2024/04/02 10:23:08;;;;;;;;;;;;;;;;;;5057151;28;20375;-72
2024/04/02 10:25:35;;;;;;;;;;;;;;;;;;5059557;28;19928;-73
2024/04/02 10:28:03;;;;;;;;;;;;;;;;;;5057002;28;20031;-74
2024/04/02 10:30:29;;;;;;;;;;;;;;;;;;5061799;28;20050;-73
2024/04/02 10:32:56;;;;;;;;;;;;;;;;;;5059687;28;19939;-73
2024/04/02 10:35:22;;;;;;;;;;;;;;;;;;5056272;28;19933;-73
2024/04/02 10:37:49;;;;;;;;;;;;;;;;;;5057706;28;19941;-73
2024/04/02 10:40:16;;;;;;;;;;;;;;;;;;5063370;28;20399;-72
2024/04/02 10:42:43;;;;;;;;;;;;;;;;;;5054210;28;19932;-72
2024/04/02 10:45:09;;;;;;;;;;;;;;;;;;5062542;28;20330;-70
2024/04/02 10:47:36;;;;;;;;;;;;;;;;;;5072688;28;19951;-72
2024/04/02 10:50:02;;;;;;;;;;;;;;;;;;5066224;28;19974;-73
2024/04/02 10:52:29;;;;;;;;;;;;;;;;;;5062292;28;19933;-72
2024/04/02 10:54:55;;;;;;;;;;;;;;;;;;5066789;28;19963;-73
2024/04/02 10:57:22;;;;;;;;;;;;;;;;;;5067647;28;19935;-72
2024/04/02 10:59:48;;;;;;;;;;;;;;;;;;5064941;28;19932;-72
2024/04/02 11:02:16;;;;;;;;;;;;;;;;;;5061883;28;19929;-72
2024/04/02 11:04:42;;;;;;;;;;;;;;;;;;5062610;28;19935;-71
2024/04/02 11:07:09;;;;;;;;;;;;;;;;;;5060838;28;20418;-72
2024/04/02 11:09:35;;;;;;;;;;;;;;;;;;5068803;28;19978;-71
2024/04/02 11:12:02;;;;;;;;;;;;;;;;;;5060988;28;19932;-71
2024/04/02 11:14:28;;;;;;;;;;;;;;;;;;5060778;28;19940;-72
2024/04/02 11:16:55;;;;;;;;;;;;;;;;;;5058699;28;19928;-72
2024/04/02 11:19:21;;;;;;;;;;;;;;;;;;5065457;28;19960;-72
2024/04/02 11:21:52;;;;;;;;;;;;;;;;;;5074847;28;19929;-72
2024/04/02 11:27:04;;;;;;;;;;;;;;;;;;5065694;28;20028;-73
2024/04/02 11:29:31;;;;;;;;;;;;;;;;;;5064841;28;19928;-72
2024/04/02 11:31:57;;;;;;;;;;;;;;;;;;5067618;28;19932;-72
2024/04/02 11:34:24;;;;;;;;;;;;;;;;;;5067621;28;19936;-72
2024/04/02 11:36:50;;;;;;;;;;;;;;;;;;5068084;28;19979;-74
2024/04/02 11:39:18;;;;;;;;;;;;;;;;;;5070320;28;19929;-72
2024/04/02 11:41:44;;;;;;;;;;;;;;;;;;5064995;28;20022;-71
2024/04/02 11:44:12;;;;;;;;;;;;;;;;;;5063133;28;19937;-72
2024/04/02 11:46:38;;;;;;;;;;;;;;;;;;5067501;28;19990;-73
2024/04/02 11:49:05;;;;;;;;;;;;;;;;;;5062757;28;19929;-74
2024/04/02 11:51:31;;;;;;;;;;;;;;;;;;5068814;28;20029;-74
2024/04/02 11:53:58;;;;;;;;;;;;;;;;;;5070531;28;20432;-74
2024/04/02 12:00:00;;;;;;;;;;;;;;;;;;5067815;28;19997;-72
2024/04/02 12:01:56;;;;;;;;;;;;;;;;;;5067654;28;20384;-73
2024/04/02 12:04:22;;;;;;;;;;;;;;;;;;5060393;28;19933;-73
2024/04/02 12:06:49;;;;;;;;;;;;;;;;;;5060645;28;19955;-72
2024/04/02 12:09:19;;;;;;;;;;;;;;;;;;5061504;28;19947;-72
2024/04/02 12:11:45;;;;;;;;;;;;;;;;;;5065108;28;19935;-73
2024/04/02 12:14:13;;;;;;;;;;;;;;;;;;5059405;28;19929;-73
2024/04/02 12:16:41;;;;;;;;;;;;;;;;;;5048028;28;19929;-73
2024/04/02 12:19:08;;;;;;;;;;;;;;;;;;5067520;28;19929;-73
2024/04/02 12:21:36;;;;;;;;;;;;;;;;;;5068274;28;19929;-73
2024/04/02 12:24:02;;;;;;;;;;;;;;;;;;5062133;28;19928;-73
2024/04/02 12:26:29;;;;;;;;;;;;;;;;;;5063937;28;19932;-73
2024/04/02 12:28:55;;;;;;;;;;;;;;;;;;5052744;28;19929;-73
2024/04/02 12:31:22;;;;;;;;;;;;;;;;;;5062260;28;19936;-72
2024/04/02 12:33:48;;;;;;;;;;;;;;;;;;5051461;28;19932;-72
2024/04/02 12:36:15;;;;;;;;;;;;;;;;;;5054333;28;19929;-74
2024/04/02 12:38:41;;;;;;;;;;;;;;;;;;5053094;28;19935;-73
2024/04/02 12:41:08;;;;;;;;;;;;;;;;;;5050142;28;20404;-73
2024/04/02 12:43:34;;;;;;;;;;;;;;;;;;5066955;28;20391;-73
2024/04/02 12:46:02;;;;;;;;;;;;;;;;;;5083817;28;19928;-73
2024/04/02 12:48:28;;;;;;;;;;;;;;;;;;5074823;28;19964;-73
2024/04/02 12:50:55;;;;;;;;;;;;;;;;;;5065913;28;19933;-74
2024/04/02 12:53:21;;;;;;;;;;;;;;;;;;5067311;28;19936;-74
2024/04/02 12:55:48;;;;;;;;;;;;;;;;;;5053593;28;19936;-74
2024/04/02 12:58:14;;;;;;;;;;;;;;;;;;5059221;28;20345;-74
2024/04/02 13:00:42;;;;;;;;;;;;;;;;;;5060834;28;19970;-73
2024/04/02 13:03:08;;;;;;;;;;;;;;;;;;5065364;28;19929;-73
2024/04/02 13:05:35;;;;;;;;;;;;;;;;;;5065677;28;19928;-72
2024/04/02 13:08:02;;;;;;;;;;;;;;;;;;5069313;28;19972;-73
2024/04/02 13:10:31;;;;;;;;;;;;;;;;;;5076393;28;19929;-71
2024/04/02 13:12:58;;;;;;;;;;;;;;;;;;5083548;28;19932;-71
2024/04/02 13:15:25;;;;;;;;;;;;;;;;;;5067474;28;20292;-71
2024/04/02 13:17:52;;;;;;;;;;;;;;;;;;5061188;28;19951;-71
2024/04/02 13:20:20;;;;;;;;;;;;;;;;;;5072667;28;19932;-71
2024/04/02 13:22:47;;;;;;;;;;;;;;;;;;5067589;28;20435;-71
2024/04/02 13:25:17;;;;;;;;;;;;;;;;;;5067638;28;19928;-70
2024/04/02 13:27:43;;;;;;;;;;;;;;;;;;5070048;28;19928;-71
2024/04/02 13:30:10;;;;;;;;;;;;;;;;;;5075310;28;19957;-71
2024/04/02 13:32:37;;;;;;;;;;;;;;;;;;5083102;28;19928;-71
2024/04/02 13:35:05;;;;;;;;;;;;;;;;;;5071945;28;19928;-69
2024/04/02 13:37:32;;;;;;;;;;;;;;;;;;5070301;28;20015;-70
2024/04/02 13:39:59;;;;;;;;;;;;;;;;;;5065583;28;20278;-71
2024/04/02 13:42:25;;;;;;;;;;;;;;;;;;5077128;28;19932;-70
2024/04/02 13:44:52;;;;;;;;;;;;;;;;;;5069564;28;19928;-72
2024/04/02 13:47:19;;;;;;;;;;;;;;;;;;5070917;28;19936;-71
2024/04/02 13:49:46;;;;;;;;;;;;;;;;;;5079577;28;20021;-70
2024/04/02 13:52:12;;;;;;;;;;;;;;;;;;5075216;28;19929;-71
2024/04/02 13:54:39;;;;;;;;;;;;;;;;;;5081334;28;20432;-72
2024/04/02 13:57:06;;;;;;;;;;;;;;;;;;5077782;28;20349;-73
2024/04/02 13:59:33;;;;;;;;;;;;;;;;;;5083536;28;19928;-72
2024/04/02 14:01:59;;;;;;;;;;;;;;;;;;5071292;28;20466;-72
2024/04/02 14:04:26;;;;;;;;;;;;;;;;;;5067886;28;19928;-72
2024/04/02 14:06:52;;;;;;;;;;;;;;;;;;5057687;28;19928;-72
2024/04/02 14:09:19;;;;;;;;;;;;;;;;;;5070542;28;19986;-71
2024/04/02 14:11:46;;;;;;;;;;;;;;;;;;5068684;28;19985;-70
2024/04/02 14:14:14;;;;;;;;;;;;;;;;;;5070109;28;19935;-72
2024/04/02 14:16:41;;;;;;;;;;;;;;;;;;5073651;28;19932;-72
2024/04/02 14:19:08;;;;;;;;;;;;;;;;;;5065085;28;19929;-71
2024/04/02 14:21:35;;;;;;;;;;;;;;;;;;5062940;28;20015;-71
2024/04/02 14:24:04;;;;;;;;;;;;;;;;;;5064951;28;19964;-72
2024/04/02 14:26:30;;;;;;;;;;;;;;;;;;5070035;28;19931;-72
2024/04/02 14:28:57;;;;;;;;;;;;;;;;;;5076668;28;20395;-71
2024/04/02 14:31:25;;;;;;;;;;;;;;;;;;5065515;28;19929;-71
2024/04/02 14:33:53;;;;;;;;;;;;;;;;;;5064471;28;19958;-71
2024/04/02 14:36:19;;;;;;;;;;;;;;;;;;5067784;28;19932;-71
2024/04/02 14:38:46;;;;;;;;;;;;;;;;;;5060904;28;19936;-72
2024/04/02 14:41:12;;;;;;;;;;;;;;;;;;5060719;28;19933;-72
2024/04/02 14:43:39;;;;;;;;;;;;;;;;;;5061098;28;19939;-71
2024/04/02 14:46:05;;;;;;;;;;;;;;;;;;5068940;28;21598;-72
2024/04/02 14:48:32;;;;;;;;;;;;;;;;;;5074609;28;19929;-72
2024/04/02 14:50:58;;;;;;;;;;;;;;;;;;5056477;28;19933;-73
2024/04/02 14:53:25;;;;;;;;;;;;;;;;;;5071528;28;19928;-72
2024/04/02 14:55:51;;;;;;;;;;;;;;;;;;5067890;28;19969;-71
2024/04/02 14:58:18;;;;;;;;;;;;;;;;;;5068681;28;19932;-72
2024/04/02 15:00:45;;;;;;;;;;;;;;;;;;5063907;28;20388;-72
2024/04/02 15:03:12;;;;;;;;;;;;;;;;;;5056470;28;20017;-72
2024/04/02 15:05:38;;;;;;;;;;;;;;;;;;5063979;28;19993;-72
2024/04/02 15:08:06;;;;;;;;;;;;;;;;;;5057802;28;20250;-71
2024/04/02 15:10:32;;;;;;;;;;;;;;;;;;5054122;28;19929;-71
2024/04/02 15:12:59;;;;;;;;;;;;;;;;;;5052749;28;20399;-71
2024/04/02 15:15:25;;;;;;;;;;;;;;;;;;5062330;28;20022;-72
2024/04/02 15:17:52;;;;;;;;;;;;;;;;;;5062373;28;20505;-72
2024/04/02 15:20:18;;;;;;;;;;;;;;;;;;5067652;28;19975;-72
2024/04/02 15:22:45;;;;;;;;;;;;;;;;;;5070252;28;19940;-72
2024/04/02 15:25:11;;;;;;;;;;;;;;;;;;5061577;28;19935;-73
2024/04/02 15:27:38;;;;;;;;;;;;;;;;;;5057649;28;20015;-73
2024/04/02 15:30:04;;;;;;;;;;;;;;;;;;5053183;28;19968;-73
2024/04/02 15:32:31;;;;;;;;;;;;;;;;;;5048328;28;19955;-72
2024/04/02 15:34:57;;;;;;;;;;;;;;;;;;5066106;28;20027;-72
2024/04/02 15:37:24;;;;;;;;;;;;;;;;;;5062922;28;20272;-71
2024/04/02 15:39:51;;;;;;;;;;;;;;;;;;5061125;28;19982;-72
2024/04/02 15:42:20;;;;;;;;;;;;;;;;;;5063622;28;20415;-73
2024/04/02 15:44:46;;;;;;;;;;;;;;;;;;5059874;28;19929;-73
2024/04/02 15:47:13;;;;;;;;;;;;;;;;;;5055815;28;19929;-72
2024/04/02 15:49:39;;;;;;;;;;;;;;;;;;5056282;28;19928;-72
2024/04/02 15:52:07;;;;;;;;;;;;;;;;;;5055896;28;19929;-72
2024/04/02 15:54:33;;;;;;;;;;;;;;;;;;5050837;28;19929;-73
2024/04/02 15:57:04;;;;;;;;;;;;;;;;;;5057381;28;19944;-72
2024/04/02 15:59:30;;;;;;;;;;;;;;;;;;5058096;28;19946;-72
2024/04/02 16:01:57;;;;;;;;;;;;;;;;;;5055551;28;19976;-71
2024/04/02 16:04:23;;;;;;;;;;;;;;;;;;5057084;28;19982;-73
2024/04/02 16:06:50;;;;;;;;;;;;;;;;;;5059434;28;19933;-72
2024/04/02 16:09:16;;;;;;;;;;;;;;;;;;5061368;28;19929;-72
2024/04/02 16:11:43;;;;;;;;;;;;;;;;;;5058107;28;20067;-72
2024/04/02 16:14:10;;;;;;;;;;;;;;;;;;5061572;28;19932;-72
2024/04/02 16:16:37;;;;;;;;;;;;;;;;;;5054090;28;19928;-73
2024/04/02 16:19:03;;;;;;;;;;;;;;;;;;5056092;28;19976;-73
2024/04/02 16:21:30;;;;;;;;;;;;;;;;;;5060027;28;19933;-72
2024/04/02 16:23:57;;;;;;;;;;;;;;;;;;5061890;28;19935;-73
2024/04/02 16:26:24;;;;;;;;;;;;;;;;;;5061961;28;19936;-72
2024/04/02 16:28:50;;;;;;;;;;;;;;;;;;5067434;28;19943;-72
2024/04/02 16:31:17;;;;;;;;;;;;;;;;;;5061366;28;19929;-73
2024/04/02 16:33:43;;;;;;;;;;;;;;;;;;5056913;28;19929;-73
2024/04/02 16:36:10;;;;;;;;;;;;;;;;;;5060880;28;20396;-73
2024/04/02 16:38:36;;;;;;;;;;;;;;;;;;5057281;28;19952;-73
2024/04/02 16:41:03;;;;;;;;;;;;;;;;;;5055718;28;20418;-73
2024/04/02 16:43:29;;;;;;;;;;;;;;;;;;5053661;28;20041;-73
2024/04/02 16:45:56;;;;;;;;;;;;;;;;;;5060558;28;19982;-73
2024/04/02 16:48:22;;;;;;;;;;;;;;;;;;5064244;28;19967;-73